Time;durP1;ratioP1;P1;durP2;ratioP2;P2;SDS_P1;SDS_P2;PMS_P1;PMS_P2;Temp;Humidity;BMP_temperature;BMP_pressure;BME280_temperature;BME280_humidity;BME280_pressure;Samples;Min_cycle;Max_cycle;Signal;HPM_P1;HPM_P2
2023/08/11 00:00:32;;;;;;;3.58;2.20;;;;;;;22.11;60.43;99056.41;5051524;28;20159;-46
2023/08/11 00:02:58;;;;;;;5.85;2.40;;;;;;;22.07;60.46;99066.88;5033760;28;20025;-46
2023/08/11 00:05:24;;;;;;;5.80;2.28;;;;;;;22.01;60.98;99067.09;5051493;28;20439;-47
2023/08/11 00:07:50;;;;;;;6.05;2.58;;;;;;;21.99;61.20;99074.59;5051550;28;20022;-46
2023/08/11 00:10:19;;;;;;;6.90;2.50;;;;;;;21.90;61.39;99072.44;5051535;28;20064;-46
2023/08/11 00:12:46;;;;;;;8.90;2.45;;;;;;;21.79;61.56;99078.84;5030112;28;20141;-46
2023/08/11 00:15:12;;;;;;;5.10;2.45;;;;;;;21.74;61.96;99070.81;5031630;28;20128;-46
2023/08/11 00:17:40;;;;;;;3.55;2.35;;;;;;;21.72;62.37;99072.94;5031547;28;20032;-47
2023/08/11 00:20:08;;;;;;;6.78;2.25;;;;;;;21.64;62.46;99078.81;5031579;28;20030;-46
2023/08/11 00:22:34;;;;;;;6.32;2.33;;;;;;;21.59;62.68;99081.47;5031430;28;20029;-46
2023/08/11 00:25:00;;;;;;;3.85;2.30;;;;;;;21.59;63.13;99084.94;5031456;28;20025;-46
2023/08/11 00:27:27;;;;;;;2.80;2.30;;;;;;;21.55;63.39;99081.19;5031519;28;20068;-46
2023/08/11 00:29:54;;;;;;;4.57;2.10;;;;;;;21.49;63.61;99080.38;5031476;28;20028;-46
2023/08/11 00:32:20;;;;;;;4.75;2.30;;;;;;;21.46;63.85;99088.91;5031498;28;20025;-46
2023/08/11 00:34:47;;;;;;;10.68;3.05;;;;;;;21.44;64.09;99090.22;5031486;28;20391;-46
2023/08/11 00:37:13;;;;;;;7.40;3.10;;;;;;;21.60;63.69;99091.09;5031487;28;20025;-47
2023/08/11 00:39:39;;;;;;;11.73;3.13;;;;;;;21.71;63.55;99090.84;5031395;28;20100;-46
2023/08/11 00:42:05;;;;;;;9.38;2.75;;;;;;;21.76;63.26;99086.59;5031604;28;20125;-46
2023/08/11 00:44:32;;;;;;;9.52;3.10;;;;;;;21.74;62.85;99090.31;5031252;28;20422;-46
2023/08/11 00:46:58;;;;;;;16.50;3.22;;;;;;;21.83;62.99;99092.47;5034083;28;20029;-46
2023/08/11 00:49:24;;;;;;;4.20;2.22;;;;;;;21.92;62.51;99096.25;5033709;28;20025;-46
2023/08/11 00:51:50;;;;;;;8.35;2.47;;;;;;;21.87;62.46;99093.53;5034995;28;20021;-46
2023/08/11 00:54:16;;;;;;;9.48;2.72;;;;;;;21.78;63.23;99095.94;5034916;28;20021;-46
2023/08/11 00:56:44;;;;;;;3.47;2.80;;;;;;;21.91;63.05;99100.78;5017210;28;20044;-46
2023/08/11 00:59:19;;;;;;;10.13;2.60;;;;;;;21.92;62.57;99093.56;5034867;28;20028;-46
2023/08/11 01:01:45;;;;;;;5.28;2.13;;;;;;;21.92;62.83;99096.25;5034839;28;20029;-46
2023/08/11 01:04:10;;;;;;;7.60;2.90;;;;;;;21.94;62.96;99094.09;5034697;28;20144;-46
2023/08/11 01:06:44;;;;;;;8.30;3.17;;;;;;;21.82;63.12;99090.88;5034697;28;20026;-46
2023/08/11 01:09:23;;;;;;;5.68;2.30;;;;;;;21.80;63.12;99093.81;5034656;28;20051;-46
2023/08/11 01:12:17;;;;;;;13.52;4.00;;;;;;;21.88;62.86;99095.16;5033065;28;20047;-46
2023/08/11 01:14:53;;;;;;;4.65;2.70;;;;;;;21.99;62.87;99094.09;5034603;28;20060;-46
2023/08/11 01:17:20;;;;;;;11.93;7.75;;;;;;;22.07;62.73;99093.59;5034543;28;20026;-46
2023/08/11 01:19:46;;;;;;;7.10;2.50;;;;;;;22.02;62.26;99096.25;5017002;28;20061;-47
2023/08/11 01:22:21;;;;;;;6.47;3.80;;;;;;;21.80;62.97;99093.00;5034405;28;20021;-46
2023/08/11 01:24:48;;;;;;;7.65;3.05;;;;;;;21.54;63.56;99106.28;5034391;28;20026;-46
2023/08/11 01:27:13;;;;;;;5.68;2.55;;;;;;;21.31;64.28;99102.97;5034287;28;20056;-46
2023/08/11 01:29:40;;;;;;;6.68;2.63;;;;;;;21.14;64.78;99102.34;5034242;28;20017;-46
2023/08/11 01:32:06;;;;;;;4.18;2.22;;;;;;;21.02;65.54;99105.22;5032916;28;20026;-46
2023/08/11 01:34:31;;;;;;;6.90;2.03;;;;;;;20.92;65.97;99107.81;5034173;28;20041;-46
2023/08/11 01:37:00;;;;;;;4.93;2.28;;;;;;;20.87;66.04;99107.81;5034178;28;20386;-46
2023/08/11 01:39:26;;;;;;;4.25;2.40;;;;;;;20.90;66.32;99117.97;5034145;28;20029;-46
2023/08/11 01:41:52;;;;;;;7.05;2.63;;;;;;;20.91;66.41;99116.91;5032742;28;20040;-46
2023/08/11 01:44:19;;;;;;;6.05;3.10;;;;;;;20.83;66.55;99112.84;5033960;28;20364;-46
2023/08/11 01:46:46;;;;;;;8.80;3.15;;;;;;;20.84;66.83;99119.78;5034045;28;20044;-46
2023/08/11 01:49:12;;;;;;;9.38;3.13;;;;;;;20.85;66.74;99116.06;5033951;28;20033;-46
2023/08/11 01:51:42;;;;;;;6.35;2.50;;;;;;;20.93;66.75;99112.13;5033767;28;20024;-46
2023/08/11 01:54:08;;;;;;;3.90;2.80;;;;;;;20.95;66.26;99116.13;5016099;28;20025;-46
2023/08/11 01:56:36;;;;;;;4.78;2.45;;;;;;;20.86;66.46;99122.19;5033649;28;20386;-46
2023/08/11 01:59:12;;;;;;;6.00;2.30;;;;;;;20.76;67.13;99122.94;5033808;28;20030;-46
2023/08/11 02:01:38;;;;;;;3.17;2.78;;;;;;;20.66;67.21;99126.31;5033705;28;20057;-46
2023/08/11 02:04:05;;;;;;;4.93;2.90;;;;;;;20.69;67.56;99123.16;5033518;28;20029;-46
2023/08/11 02:06:31;;;;;;;8.80;2.75;;;;;;;20.70;67.21;99123.97;5032299;28;20047;-46
2023/08/11 02:08:57;;;;;;;5.95;2.85;;;;;;;20.65;67.36;99124.72;5032304;28;20124;-47
2023/08/11 02:11:23;;;;;;;5.00;2.47;;;;;;;20.52;68.00;99127.78;5040495;28;20041;-46
2023/08/11 02:13:48;;;;;;;13.13;3.17;;;;;;;20.45;68.20;99130.69;5053376;28;20071;-46
2023/08/11 02:16:14;;;;;;;8.50;3.13;;;;;;;20.48;68.22;99130.19;5053355;28;20028;-46
2023/08/11 02:18:40;;;;;;;7.57;2.55;;;;;;;20.50;68.22;99133.41;5053196;28;20052;-46
2023/08/11 02:21:10;;;;;;;5.50;2.90;;;;;;;20.58;68.19;99131.31;5053234;28;20035;-46
2023/08/11 02:23:35;;;;;;;4.82;2.80;;;;;;;20.62;68.03;99137.75;5053211;28;20025;-46
2023/08/11 02:26:01;;;;;;;10.82;3.60;;;;;;;20.69;67.75;99131.16;5053109;28;20029;-46
2023/08/11 02:28:27;;;;;;;6.05;2.53;;;;;;;20.72;67.84;99137.84;5035134;28;20029;-47
2023/08/11 02:30:53;;;;;;;7.95;2.58;;;;;;;20.77;67.61;99131.75;5053046;28;20034;-46
2023/08/11 02:33:18;;;;;;;11.50;3.30;;;;;;;20.90;67.80;99132.09;5053279;28;20447;-46
2023/08/11 02:35:47;;;;;;;11.90;3.17;;;;;;;21.18;67.28;99127.47;5052889;28;20044;-46
2023/08/11 02:38:15;;;;;;;5.70;2.40;;;;;;;21.44;66.39;99128.41;5053145;28;20451;-46
2023/08/11 02:40:41;;;;;;;4.60;2.50;;;;;;;21.50;65.79;99126.56;5034874;28;20090;-46
2023/08/11 02:43:07;;;;;;;10.00;2.72;;;;;;;21.57;65.48;99131.66;5052842;28;20021;-46
2023/08/11 02:45:33;;;;;;;9.95;2.92;;;;;;;21.42;65.60;99132.38;5052632;28;20032;-46
2023/08/11 02:47:58;;;;;;;4.25;2.35;;;;;;;21.24;65.80;99136.31;5052701;28;20403;-46
2023/08/11 02:50:24;;;;;;;6.70;2.50;;;;;;;21.02;66.11;99131.09;5052655;28;20017;-46
2023/08/11 02:52:50;;;;;;;5.30;2.25;;;;;;;20.85;66.71;99126.75;5052606;28;20017;-46
2023/08/11 02:55:16;;;;;;;11.93;3.50;;;;;;;20.73;67.16;99132.25;5052798;28;20029;-46
2023/08/11 02:57:41;;;;;;;10.55;2.85;;;;;;;20.62;67.35;99125.22;5052554;28;20021;-46
2023/08/11 03:00:12;;;;;;;8.13;2.50;;;;;;;20.58;67.59;99133.97;5052475;28;20082;-46
2023/08/11 03:02:39;;;;;;;5.30;2.63;;;;;;;20.58;67.70;99131.31;5052488;28;20021;-46
2023/08/11 03:05:07;;;;;;;11.02;3.35;;;;;;;20.52;67.83;99131.28;5034444;28;20108;-46
2023/08/11 03:07:37;;;;;;;5.93;3.50;;;;;;;20.32;68.59;99133.75;5052141;28;20029;-46
2023/08/11 03:10:04;;;;;;;10.43;2.47;;;;;;;20.12;69.43;99132.53;5051721;28;20021;-46
2023/08/11 03:12:30;;;;;;;6.10;2.45;;;;;;;19.92;69.84;99130.44;5051815;28;20052;-46
2023/08/11 03:14:56;;;;;;;11.25;2.67;;;;;;;19.81;70.46;99128.72;5034301;28;20040;-46
2023/08/11 03:17:23;;;;;;;9.43;2.60;;;;;;;19.75;71.11;99125.19;5034178;28;20031;-46
2023/08/11 03:19:48;;;;;;;5.68;2.65;;;;;;;19.75;71.03;99124.41;5034536;28;20024;-46
2023/08/11 03:22:17;;;;;;;4.15;2.50;;;;;;;19.73;71.75;99131.84;5034483;28;20028;-46
2023/08/11 03:24:44;;;;;;;9.20;4.60;;;;;;;19.71;71.96;99129.41;5051949;28;20013;-46
2023/08/11 03:27:12;;;;;;;7.15;4.20;;;;;;;19.61;72.36;99125.81;5051981;28;20098;-46
2023/08/11 03:29:38;;;;;;;4.88;3.38;;;;;;;19.56;72.68;99134.53;5034102;28;20021;-46
2023/08/11 03:32:04;;;;;;;7.95;2.70;;;;;;;19.52;72.84;99133.44;5034038;28;20494;-46
2023/08/11 03:34:30;;;;;;;5.45;2.80;;;;;;;19.47;73.16;99128.84;5034302;28;20028;-46
2023/08/11 03:36:56;;;;;;;7.75;2.90;;;;;;;19.46;73.34;99127.25;5052088;28;20108;-46
2023/08/11 03:39:21;;;;;;;8.75;2.78;;;;;;;19.54;73.43;99131.31;5034171;28;20116;-46
2023/08/11 03:41:47;;;;;;;6.22;3.45;;;;;;;19.52;73.72;99126.25;5033852;28;20032;-46
2023/08/11 03:44:13;;;;;;;7.97;2.95;;;;;;;19.49;73.60;99128.59;5051957;28;20028;-46
2023/08/11 03:46:38;;;;;;;6.80;3.13;;;;;;;19.42;73.17;99125.28;5051709;28;20478;-46
2023/08/11 03:49:06;;;;;;;7.35;3.58;;;;;;;19.35;73.97;99130.81;5033817;28;20478;-46
2023/08/11 03:51:32;;;;;;;5.78;2.70;;;;;;;19.32;73.99;99129.47;5033769;28;20028;-46
2023/08/11 03:54:02;;;;;;;6.13;3.05;;;;;;;19.32;74.04;99123.34;5033967;28;20025;-46
2023/08/11 03:56:28;;;;;;;7.05;3.28;;;;;;;19.25;74.40;99117.38;5034448;28;20463;-46
2023/08/11 03:58:54;;;;;;;5.22;2.90;;;;;;;19.20;74.80;99128.75;5017376;28;20114;-46
2023/08/11 04:01:20;;;;;;;4.40;3.13;;;;;;;19.12;75.08;99135.31;5033629;28;20056;-46
2023/08/11 04:03:46;;;;;;;7.60;2.75;;;;;;;19.03;75.21;99133.31;5051586;28;20316;-46
2023/08/11 04:06:11;;;;;;;8.10;2.75;;;;;;;18.99;75.73;99126.88;5051704;28;20032;-46
2023/08/11 04:08:37;;;;;;;8.30;3.58;;;;;;;19.00;75.78;99133.81;5051537;28;20032;-46
2023/08/11 04:11:03;;;;;;;4.22;3.10;;;;;;;19.03;75.87;99135.97;5051255;28;20060;-47
2023/08/11 04:13:29;;;;;;;7.93;3.55;;;;;;;19.03;75.80;99130.66;5051759;28;20032;-46
2023/08/11 04:15:54;;;;;;;4.85;3.03;;;;;;;19.09;76.06;99142.97;5051449;28;20379;-46
2023/08/11 04:18:20;;;;;;;10.82;4.10;;;;;;;19.17;75.95;99137.22;5051478;28;20100;-46
2023/08/11 04:20:48;;;;;;;7.55;2.85;;;;;;;19.32;75.11;99140.09;5054119;28;20025;-46
2023/08/11 04:23:14;;;;;;;5.05;2.70;;;;;;;19.27;74.90;99136.56;5037456;28;20381;-46
2023/08/11 04:25:40;;;;;;;7.97;2.95;;;;;;;19.20;75.14;99144.72;5055326;28;20079;-46
2023/08/11 04:28:06;;;;;;;7.45;3.00;;;;;;;19.19;75.50;99148.44;5055344;28;20108;-46
2023/08/11 04:30:32;;;;;;;9.35;3.20;;;;;;;19.21;75.31;99150.84;5055469;28;20033;-46
2023/08/11 04:32:59;;;;;;;4.38;3.00;;;;;;;19.14;75.54;99145.72;5055482;28;20029;-46
2023/08/11 04:35:25;;;;;;;8.18;3.08;;;;;;;19.12;75.59;99145.16;5021232;28;20036;-46
2023/08/11 04:37:51;;;;;;;7.60;3.33;;;;;;;19.07;75.85;99140.53;5037537;28;20464;-46
2023/08/11 04:40:17;;;;;;;6.88;3.03;;;;;;;19.04;76.18;99142.91;5055102;28;20029;-46
2023/08/11 04:42:44;;;;;;;10.38;3.38;;;;;;;19.00;75.95;99139.94;5055305;28;20013;-46
2023/08/11 04:45:10;;;;;;;6.53;3.05;;;;;;;19.01;76.16;99146.84;5036980;28;20049;-46
2023/08/11 04:47:36;;;;;;;6.45;2.60;;;;;;;19.07;76.11;99145.88;5054977;28;20032;-46
2023/08/11 04:50:02;;;;;;;14.05;3.30;;;;;;;19.21;75.75;99149.00;5054838;28;20029;-46
2023/08/11 04:52:28;;;;;;;6.65;2.92;;;;;;;19.47;75.35;99152.00;5036921;28;20111;-46
2023/08/11 04:54:54;;;;;;;10.25;3.58;;;;;;;19.64;74.37;99144.75;5036961;28;20115;-46
2023/08/11 04:57:20;;;;;;;12.63;3.20;;;;;;;19.71;73.59;99148.06;5054795;28;20043;-46
2023/08/11 04:59:45;;;;;;;3.92;2.90;;;;;;;19.74;73.58;99144.91;5036833;28;20025;-46
2023/08/11 05:02:11;;;;;;;7.82;3.20;;;;;;;20.25;72.64;99146.50;5054949;28;20017;-46
2023/08/11 05:04:38;;;;;;;7.55;3.17;;;;;;;20.90;70.05;99145.44;5037039;28;20029;-46
2023/08/11 05:07:06;;;;;;;7.93;3.33;;;;;;;21.49;67.48;99144.47;5036946;28;20014;-46
2023/08/11 05:09:32;;;;;;;15.60;3.33;;;;;;;22.04;65.70;99142.22;5054488;28;20021;-46
2023/08/11 05:11:58;;;;;;;9.57;2.80;;;;;;;22.72;63.86;99146.59;5054313;28;20048;-46
2023/08/11 05:14:24;;;;;;;9.02;3.15;;;;;;;23.54;61.52;99141.03;5036595;28;20021;-46
2023/08/11 05:16:49;;;;;;;31.35;4.70;;;;;;;24.30;59.30;99141.72;5054412;28;20024;-46
2023/08/11 05:19:15;;;;;;;10.15;3.20;;;;;;;24.90;56.82;99150.38;5036488;28;20025;-46
2023/08/11 05:21:41;;;;;;;14.30;2.92;;;;;;;25.33;55.04;99141.63;5054331;28;20092;-46
2023/08/11 05:24:07;;;;;;;8.55;2.50;;;;;;;25.57;53.87;99154.25;5054343;28;20055;-46
2023/08/11 05:26:33;;;;;;;22.90;3.92;;;;;;;25.89;52.98;99150.88;5036636;28;20032;-46
2023/08/11 05:28:59;;;;;;;154.20;116.55;;;;;;;26.19;52.52;99149.66;5054532;28;20031;-46
2023/08/11 05:31:25;;;;;;;30.65;13.05;;;;;;;26.17;51.54;99154.53;5053459;28;20029;-46
2023/08/11 05:33:52;;;;;;;19.23;4.70;;;;;;;26.04;51.70;99160.66;5054206;28;20087;-46
2023/08/11 05:36:18;;;;;;;8.70;3.60;;;;;;;25.69;51.13;99157.31;5054021;28;20498;-47
2023/08/11 05:38:44;;;;;;;5.85;2.85;;;;;;;25.39;52.57;99161.97;5054055;28;20075;-46
2023/08/11 05:41:10;;;;;;;9.75;3.70;;;;;;;25.43;52.26;99167.56;5036332;28;20025;-46
2023/08/11 05:43:36;;;;;;;12.35;3.05;;;;;;;25.78;51.26;99169.03;5053952;28;20025;-46
2023/08/11 05:46:03;;;;;;;9.82;3.13;;;;;;;26.33;49.93;99168.56;5053840;28;20021;-46
2023/08/11 05:48:29;;;;;;;14.05;4.20;;;;;;;27.21;48.76;99174.09;5054105;28;20025;-46
2023/08/11 05:50:54;;;;;;;9.55;3.13;;;;;;;28.17;46.06;99175.13;5053820;28;20037;-46
2023/08/11 05:53:20;;;;;;;20.38;4.05;;;;;;;29.04;43.67;99170.31;5053807;28;20107;-46
2023/08/11 05:55:46;;;;;;;9.85;3.63;;;;;;;29.91;41.39;99171.72;5035772;28;20059;-46
2023/08/11 05:58:11;;;;;;;17.15;3.80;;;;;;;30.82;39.55;99170.69;5053724;28;20025;-46
2023/08/11 06:00:37;;;;;;;25.35;3.78;;;;;;;31.55;38.46;99172.53;5035736;28;20029;-46
2023/08/11 06:03:03;;;;;;;7.15;2.70;;;;;;;31.84;37.10;99173.63;5053636;28;20025;-47
2023/08/11 06:05:29;;;;;;;15.18;3.55;;;;;;;31.79;36.91;99179.25;5035541;28;20059;-47
2023/08/11 06:07:54;;;;;;;13.55;3.38;;;;;;;32.06;36.50;99183.41;5053499;28;20029;-46
2023/08/11 06:10:20;;;;;;;15.80;3.75;;;;;;;32.18;36.29;99179.97;5053423;28;20032;-47
2023/08/11 06:12:49;;;;;;;5.68;2.42;;;;;;;32.34;35.42;99172.00;5053236;28;20060;-47
2023/08/11 06:15:15;;;;;;;6.25;2.42;;;;;;;32.39;34.90;99182.63;5053284;28;20025;-47
2023/08/11 06:17:41;;;;;;;4.50;2.50;;;;;;;32.29;35.31;99181.13;5053379;28;20032;-47
2023/08/11 06:20:10;;;;;;;13.25;3.33;;;;;;;32.36;35.47;99177.88;5053207;28;20376;-46
2023/08/11 06:22:36;;;;;;;11.02;3.40;;;;;;;32.88;34.81;99182.81;5053179;28;20086;-47
2023/08/11 06:25:02;;;;;;;5.22;2.72;;;;;;;33.82;33.67;99172.97;5053018;28;20029;-47
2023/08/11 06:27:28;;;;;;;11.18;3.00;;;;;;;34.10;32.36;99180.41;5053109;28;20035;-47
2023/08/11 06:29:53;;;;;;;15.82;3.97;;;;;;;33.92;32.61;99185.31;5053315;28;20032;-47
2023/08/11 06:32:19;;;;;;;9.98;2.83;;;;;;;34.34;32.23;99185.00;5053307;28;20070;-47
2023/08/11 06:34:45;;;;;;;8.80;3.10;;;;;;;35.31;31.15;99192.97;5035078;28;20068;-47
2023/08/11 06:37:10;;;;;;;10.48;2.58;;;;;;;36.65;29.38;99192.75;5034956;28;20108;-47
2023/08/11 06:39:36;;;;;;;52.50;5.47;;;;;;;37.83;28.02;99188.38;5052866;28;20033;-47
2023/08/11 06:42:02;;;;;;;39.72;5.25;;;;;;;38.88;26.44;99182.91;5035103;28;20017;-47
2023/08/11 06:44:28;;;;;;;21.05;3.35;;;;;;;39.66;25.44;99183.88;5051737;28;20451;-47
2023/08/11 06:46:53;;;;;;;16.67;3.65;;;;;;;40.11;24.63;99179.00;5034799;28;20025;-47
2023/08/11 06:49:19;;;;;;;24.15;3.72;;;;;;;39.67;24.74;99183.50;5052683;28;20039;-47
2023/08/11 06:51:45;;;;;;;69.95;6.50;;;;;;;39.06;25.64;99182.28;5034961;28;20021;-47
2023/08/11 06:54:10;;;;;;;38.60;4.80;;;;;;;39.37;25.30;99186.44;5034633;28;20083;-47
2023/08/11 06:56:36;;;;;;;44.60;4.80;;;;;;;39.83;24.83;99179.66;5052521;28;20067;-47
2023/08/11 06:59:02;;;;;;;30.45;5.03;;;;;;;40.39;24.54;99183.84;5034591;28;20027;-47
2023/08/11 07:01:27;;;;;;;28.63;4.05;;;;;;;40.72;24.00;99190.16;5052456;28;20025;-47
2023/08/11 07:03:53;;;;;;;43.38;4.68;;;;;;;40.67;23.98;99185.84;5052427;28;20021;-47
2023/08/11 07:06:19;;;;;;;12.27;3.35;;;;;;;40.18;24.46;99181.75;5052292;28;20078;-47
2023/08/11 07:08:44;;;;;;;23.00;3.67;;;;;;;39.83;24.58;99185.16;5034490;28;20120;-47
2023/08/11 07:11:11;;;;;;;17.45;3.80;;;;;;;38.98;25.35;99186.94;5052052;28;20477;-47
2023/08/11 07:13:36;;;;;;;18.80;3.63;;;;;;;38.33;26.36;99188.19;5052271;28;20032;-47
2023/08/11 07:16:02;;;;;;;7.07;2.78;;;;;;;38.25;26.62;99198.28;5052211;28;20031;-47
2023/08/11 07:18:28;;;;;;;12.80;3.03;;;;;;;37.86;26.61;99206.03;5052134;28;20043;-47
2023/08/11 07:20:54;;;;;;;14.95;3.17;;;;;;;37.07;27.82;99202.84;5052135;28;20021;-47
2023/08/11 07:23:19;;;;;;;8.70;2.47;;;;;;;36.73;28.71;99207.34;5052041;28;20017;-47
2023/08/11 07:25:45;;;;;;;9.13;3.03;;;;;;;36.85;28.58;99206.38;5034106;28;20398;-47
2023/08/11 07:28:11;;;;;;;13.40;2.85;;;;;;;37.18;28.64;99212.03;5052328;28;20104;-47
2023/08/11 07:30:37;;;;;;;11.05;2.70;;;;;;;37.67;27.33;99209.66;5051929;28;20438;-47
2023/08/11 07:33:03;;;;;;;5.78;2.33;;;;;;;38.54;26.83;99202.19;5051934;28;20032;-47
2023/08/11 07:35:30;;;;;;;7.22;2.42;;;;;;;39.47;25.64;99199.47;5034047;28;20186;-49
2023/08/11 07:37:56;;;;;;;8.55;2.85;;;;;;;40.36;24.47;99203.06;5052071;28;20433;-49
2023/08/11 07:40:22;;;;;;;23.90;3.92;;;;;;;41.04;23.79;99208.69;5052089;28;20108;-50
2023/08/11 07:42:47;;;;;;;11.60;2.78;;;;;;;41.58;23.18;99205.91;5051844;28;20487;-49
2023/08/11 07:45:13;;;;;;;16.70;3.42;;;;;;;41.99;22.82;99211.69;5051712;28;20394;-50
2023/08/11 07:47:39;;;;;;;8.93;2.75;;;;;;;42.00;22.34;99209.72;5051793;28;20107;-50
2023/08/11 07:50:06;;;;;;;9.35;2.63;;;;;;;42.51;21.96;99202.81;5051737;28;20032;-49
2023/08/11 07:52:32;;;;;;;10.32;2.80;;;;;;;42.78;21.84;99199.47;5051937;28;20048;-50
2023/08/11 07:54:57;;;;;;;11.93;2.83;;;;;;;42.67;22.30;99199.56;5033401;28;20494;-49
2023/08/11 07:57:23;;;;;;;15.07;3.25;;;;;;;42.77;22.30;99198.69;5033782;28;20052;-50
2023/08/11 07:59:49;;;;;;;5.78;2.70;;;;;;;43.42;21.28;99201.72;5033659;28;20025;-50
2023/08/11 08:02:15;;;;;;;19.02;3.42;;;;;;;43.91;21.21;99206.31;5051588;28;20032;-50
2023/08/11 08:04:42;;;;;;;10.18;3.33;;;;;;;44.20;20.86;99202.03;5051578;28;20104;-50
2023/08/11 08:07:08;;;;;;;12.98;3.20;;;;;;;43.95;20.74;99201.53;5033619;28;20021;-50
2023/08/11 08:09:34;;;;;;;10.23;3.88;;;;;;;43.84;21.27;99202.44;5033685;28;20456;-50
2023/08/11 08:12:01;;;;;;;36.95;7.50;;;;;;;43.71;21.03;99206.97;5051291;28;20095;-50
2023/08/11 08:14:28;;;;;;;38.30;5.72;;;;;;;43.59;21.38;99204.69;5051418;28;20495;-49
2023/08/11 08:16:53;;;;;;;72.75;8.80;;;;;;;43.19;21.78;99204.28;5051459;28;20033;-50
2023/08/11 08:19:20;;;;;;;8.60;3.38;;;;;;;42.67;22.16;99202.31;5051337;28;20045;-50
2023/08/11 08:21:47;;;;;;;14.57;3.90;;;;;;;42.40;22.63;99204.81;5033611;28;20021;-50
2023/08/11 08:24:16;;;;;;;12.10;3.53;;;;;;;42.76;22.66;99199.09;5051390;28;20025;-49
2023/08/11 08:26:43;;;;;;;15.43;3.83;;;;;;;43.00;22.15;99203.66;5051262;28;20025;-49
2023/08/11 08:29:09;;;;;;;18.48;3.63;;;;;;;43.04;21.90;99198.88;5051390;28;20452;-49
2023/08/11 08:31:35;;;;;;;7.75;3.15;;;;;;;42.80;22.48;99199.84;5051332;28;20025;-50
2023/08/11 08:34:01;;;;;;;13.25;3.42;;;;;;;42.52;22.38;99211.88;5033438;28;20040;-49
2023/08/11 08:36:27;;;;;;;16.08;3.65;;;;;;;42.11;23.11;99210.50;5051280;28;20029;-50
2023/08/11 08:38:53;;;;;;;13.80;3.90;;;;;;;42.08;22.97;99203.81;5051274;28;20033;-49
2023/08/11 08:41:23;;;;;;;14.68;4.35;;;;;;;42.21;22.67;99212.41;5051234;28;20025;-49
2023/08/11 08:43:51;;;;;;;17.88;3.67;;;;;;;43.03;21.67;99207.59;5051449;28;20087;-49
2023/08/11 08:46:26;;;;;;;15.85;4.43;;;;;;;43.59;21.02;99196.38;5051120;28;20018;-49
2023/08/11 08:49:00;;;;;;;11.63;3.80;;;;;;;43.80;20.86;99198.16;5033499;28;20453;-49
2023/08/11 08:51:26;;;;;;;14.95;4.18;;;;;;;43.95;20.97;99201.53;5033363;28;20456;-49
2023/08/11 08:53:52;;;;;;;18.05;3.72;;;;;;;44.31;20.55;99206.63;5051072;28;20029;-49
2023/08/11 08:56:19;;;;;;;9.18;3.47;;;;;;;44.85;19.91;99201.84;5051090;28;20025;-49
2023/08/11 08:58:45;;;;;;;23.40;5.65;;;;;;;45.15;19.61;99194.66;5033233;28;20033;-49
2023/08/11 09:01:11;;;;;;;24.73;4.97;;;;;;;45.43;19.22;99195.38;5051061;28;20032;-49
2023/08/11 09:03:37;;;;;;;21.02;4.03;;;;;;;45.63;19.18;99195.38;5033196;28;20406;-49
2023/08/11 09:06:05;;;;;;;15.82;3.88;;;;;;;46.06;18.50;99183.44;5050939;28;20087;-49
2023/08/11 09:08:32;;;;;;;15.73;3.53;;;;;;;46.52;18.37;99187.19;5054861;28;20375;-50
2023/08/11 09:10:58;;;;;;;11.68;3.38;;;;;;;46.63;18.02;99182.16;5054036;28;20139;-50
2023/08/11 09:13:26;;;;;;;14.00;4.82;;;;;;;46.22;18.76;99175.16;5054689;28;20136;-50
2023/08/11 09:15:51;;;;;;;22.77;4.38;;;;;;;45.92;18.56;99175.41;5036568;28;20044;-49
2023/08/11 09:18:18;;;;;;;13.75;4.28;;;;;;;45.47;19.33;99181.44;5054464;28;20021;-50
2023/08/11 09:20:48;;;;;;;8.82;2.85;;;;;;;45.58;18.79;99174.50;5054408;28;20032;-50
2023/08/11 09:23:15;;;;;;;11.45;3.10;;;;;;;46.04;18.31;99160.88;5054325;28;20075;-50
2023/08/11 09:25:43;;;;;;;9.38;3.00;;;;;;;46.47;18.10;99161.91;5054248;28;20028;-49
2023/08/11 09:28:09;;;;;;;13.40;3.30;;;;;;;46.57;17.77;99155.34;5036361;28;20402;-50
2023/08/11 09:30:35;;;;;;;15.90;3.40;;;;;;;46.70;17.96;99152.66;5036349;28;20036;-50
2023/08/11 09:33:01;;;;;;;14.57;3.47;;;;;;;46.56;18.16;99165.66;5019804;28;20032;-49
2023/08/11 09:35:28;;;;;;;29.23;5.97;;;;;;;46.73;18.13;99146.19;5054154;28;20075;-50
2023/08/11 09:37:55;;;;;;;7.32;2.90;;;;;;;46.83;17.88;99139.66;5036225;28;20082;-50
2023/08/11 09:40:23;;;;;;;15.70;4.32;;;;;;;46.98;17.63;99132.47;5019858;28;20120;-50
2023/08/11 09:42:53;;;;;;;30.20;4.47;;;;;;;46.80;18.23;99129.41;5053917;28;20564;-50
2023/08/11 09:45:19;;;;;;;12.45;3.25;;;;;;;46.25;18.43;99126.34;5053890;28;20017;-49
2023/08/11 09:47:45;;;;;;;9.18;2.83;;;;;;;46.01;18.35;99131.22;5036088;28;20017;-50
2023/08/11 09:50:11;;;;;;;16.67;3.80;;;;;;;45.80;18.66;99124.94;5054107;28;20049;-50
2023/08/11 09:52:39;;;;;;;18.50;3.40;;;;;;;46.07;18.26;99134.28;5035921;28;20474;-49
2023/08/11 09:55:08;;;;;;;7.13;2.40;;;;;;;46.67;17.60;99126.53;5036246;28;20390;-49
2023/08/11 09:57:36;;;;;;;6.22;2.47;;;;;;;47.00;17.15;99115.38;5036140;28;20100;-49
2023/08/11 10:00:04;;;;;;;9.55;2.72;;;;;;;46.76;17.21;99112.00;5053669;28;20514;-50
2023/08/11 10:02:33;;;;;;;6.13;2.47;;;;;;;46.35;17.66;99110.63;5053559;28;20029;-50
2023/08/11 10:05:03;;;;;;;15.40;3.22;;;;;;;45.65;18.58;99109.81;5053495;28;20025;-50
2023/08/11 10:07:35;;;;;;;12.02;2.90;;;;;;;45.76;18.50;99104.00;5035695;28;20025;-49
2023/08/11 10:10:14;;;;;;;7.60;2.63;;;;;;;46.48;17.51;99092.06;5053766;28;20028;-50
2023/08/11 10:12:46;;;;;;;7.45;2.60;;;;;;;46.92;17.24;99100.88;5035362;28;20060;-50
2023/08/11 10:15:16;;;;;;;5.57;2.60;;;;;;;45.91;17.98;99104.50;5053452;28;20074;-50
2023/08/11 10:17:42;;;;;;;15.27;3.03;;;;;;;45.42;18.71;99110.63;5035274;28;20044;-50
2023/08/11 10:20:09;;;;;;;6.43;2.70;;;;;;;45.54;18.58;99100.88;5053555;28;20383;-50
2023/08/11 10:22:35;;;;;;;21.08;18.88;;;;;;;44.85;19.03;99093.84;5053206;28;20099;-50
2023/08/11 10:25:06;;;;;;;9.18;2.75;;;;;;;44.89;19.10;99096.56;5053160;28;20394;-50
2023/08/11 10:27:34;;;;;;;11.13;3.10;;;;;;;44.77;19.26;99094.41;5053129;28;20029;-50
2023/08/11 10:30:01;;;;;;;16.60;3.55;;;;;;;45.15;18.79;99094.91;5053146;28;20082;-50
2023/08/11 10:32:34;;;;;;;6.32;2.30;;;;;;;45.89;17.94;99104.16;5018862;28;20048;-49
2023/08/11 10:34:59;;;;;;;2.85;1.77;;;;;;;46.23;17.45;99104.56;5018837;28;20043;-49
2023/08/11 10:37:30;;;;;;;8.77;2.30;;;;;;;46.37;17.25;99108.97;5053298;28;20037;-50
2023/08/11 10:40:09;;;;;;;6.70;2.35;;;;;;;47.11;16.88;99106.72;5052993;28;20029;-50
2023/08/11 10:42:39;;;;;;;8.13;2.58;;;;;;;47.26;16.91;99110.72;5052837;28;20029;-50
2023/08/11 10:45:15;;;;;;;7.38;2.30;;;;;;;46.64;16.80;99105.16;5052665;28;20083;-50
2023/08/11 10:47:54;;;;;;;11.73;2.75;;;;;;;45.24;18.21;99102.66;5034875;28;20048;-49
2023/08/11 10:50:21;;;;;;;9.02;3.03;;;;;;;45.24;18.59;99097.13;5053031;28;20033;-50
2023/08/11 10:52:54;;;;;;;9.50;2.75;;;;;;;45.64;18.36;99097.94;5052675;28;20031;-49
2023/08/11 10:55:20;;;;;;;6.55;2.38;;;;;;;46.26;17.60;99096.56;5034821;28;20064;-50
2023/08/11 10:58:18;;;;;;;6.65;2.10;;;;;;;46.19;17.49;99092.75;5052550;28;20052;-50
2023/08/11 11:00:43;;;;;;;10.75;3.13;;;;;;;45.70;18.42;99101.00;5052514;28;20502;-50
2023/08/11 11:03:11;;;;;;;11.25;3.30;;;;;;;45.78;18.41;99094.06;5052413;28;20111;-50
2023/08/11 11:05:40;;;;;;;6.28;1.92;;;;;;;46.06;17.30;99086.31;5052279;28;20517;-50
2023/08/11 11:08:06;;;;;;;15.60;3.38;;;;;;;45.78;17.72;99090.50;5052664;28;20422;-50
2023/08/11 11:10:32;;;;;;;10.95;3.33;;;;;;;45.83;17.71;99088.00;5052341;28;20461;-50
2023/08/11 11:12:57;;;;;;;10.63;2.78;;;;;;;45.83;17.51;99092.78;5052072;28;20140;-49
2023/08/11 11:15:26;;;;;;;9.57;2.50;;;;;;;45.51;17.68;99082.34;5034327;28;20031;-49
2023/08/11 11:17:52;;;;;;;10.45;2.80;;;;;;;45.53;17.66;99082.69;5052239;28;20025;-49
2023/08/11 11:20:18;;;;;;;7.22;2.22;;;;;;;45.49;17.81;99080.00;5052144;28;20029;-49
2023/08/11 11:22:48;;;;;;;9.10;2.20;;;;;;;45.30;17.79;99081.59;5052171;28;20025;-49
2023/08/11 11:25:15;;;;;;;6.28;2.13;;;;;;;45.02;17.78;99075.38;5052073;28;20391;-50
2023/08/11 11:27:42;;;;;;;9.05;2.17;;;;;;;44.96;17.93;99077.06;5052102;28;20017;-50